Time;durP1;ratioP1;P1;durP2;ratioP2;P2;SDS_P1;SDS_P2;PMS_P1;PMS_P2;Temp;Humidity;BMP_temperature;BMP_pressure;BME280_temperature;BME280_humidity;BME280_pressure;Samples;Min_cycle;Max_cycle;Signal;HPM_P1;HPM_P2
2020/12/17 00:03:57;;;;;;;37.10;24.83;;;;;;;2.89;71.26;100565.47;10540120;28;20126;-68
2020/12/17 00:09:10;;;;;;;33.78;24.45;;;;;;;2.77;71.69;100568.84;10539872;28;20050;-68
2020/12/17 00:14:11;;;;;;;34.35;23.58;;;;;;;2.79;71.94;100567.16;10539728;28;20085;-68
2020/12/17 00:19:13;;;;;;;37.65;25.75;;;;;;;2.95;71.29;100568.13;10521458;28;20490;-68
2020/12/17 00:24:14;;;;;;;38.72;26.42;;;;;;;2.80;71.74;100571.47;10540035;28;20072;-68
2020/12/17 00:29:15;;;;;;;35.83;25.38;;;;;;;2.69;71.95;100575.69;10521375;28;20135;-68
2020/12/17 00:34:16;;;;;;;35.80;25.65;;;;;;;2.73;71.62;100575.72;10538517;28;20347;-68
2020/12/17 00:39:23;;;;;;;43.95;28.30;;;;;;;2.72;71.71;100571.41;10539001;28;20409;-68
2020/12/17 00:44:24;;;;;;;39.88;26.55;;;;;;;2.55;71.80;100572.09;10538778;28;20123;-68
2020/12/17 00:49:26;;;;;;;36.50;25.98;;;;;;;2.67;71.95;100574.81;10538542;28;20443;-68
2020/12/17 00:54:28;;;;;;;42.42;27.15;;;;;;;2.64;71.69;100569.59;10534601;22;20097;-66
2020/12/17 00:59:29;;;;;;;33.47;25.52;;;;;;;2.74;71.37;100566.22;10531817;28;20078;-67
2020/12/17 01:04:30;;;;;;;33.83;25.80;;;;;;;2.71;71.59;100561.88;10532881;28;20094;-67
2020/12/17 01:09:38;;;;;;;;;;;;;;;2.74;71.39;100564.47;10550574;28;20048;-65
2020/12/17 01:14:39;;;;;;;34.15;25.33;;;;;;;2.72;71.22;100560.16;10550552;28;19965;-68
2020/12/17 01:19:41;;;;;;;35.80;26.15;;;;;;;2.59;71.47;100560.91;10531677;28;20056;-66
2020/12/17 01:24:43;;;;;;;34.28;25.40;;;;;;;2.78;71.23;100555.00;10549143;28;20044;-66
2020/12/17 01:29:44;;;;;;;37.15;26.77;;;;;;;2.72;70.92;100555.81;10549634;28;20118;-68
2020/12/17 01:34:45;;;;;;;35.05;25.95;;;;;;;2.79;70.52;100559.34;10549949;28;20082;-67
2020/12/17 01:39:55;;;;;;;36.88;26.42;;;;;;;2.65;70.92;100558.34;10549090;28;20044;-66
2020/12/17 01:44:57;;;;;;;37.78;26.40;;;;;;;2.63;70.99;100562.66;10548820;28;20044;-67
2020/12/17 01:49:59;;;;;;;39.08;26.88;;;;;;;2.65;71.15;100556.63;10548281;28;20036;-66
2020/12/17 01:55:01;;;;;;;40.50;26.67;;;;;;;2.68;70.55;100563.56;10548270;28;20071;-67
2020/12/17 02:00:08;;;;;;;37.45;26.30;;;;;;;2.75;70.35;100557.59;10547532;28;20052;-65
2020/12/17 02:05:10;;;;;;;37.60;27.48;;;;;;;2.69;70.62;100552.31;10547645;28;20040;-67
2020/12/17 02:10:14;;;;;;;39.88;27.45;;;;;;;2.77;70.32;100551.53;10547144;28;20052;-66
2020/12/17 02:15:17;;;;;;;39.10;27.52;;;;;;;2.82;70.23;100555.91;10547802;28;20067;-67
2020/12/17 02:20:18;;;;;;;41.95;27.02;;;;;;;2.89;69.96;100549.91;10546757;28;20044;-66
2020/12/17 02:25:19;;;;;;;34.78;27.25;;;;;;;2.78;69.93;100557.59;10529216;28;20082;-67
2020/12/17 02:30:20;;;;;;;37.50;27.20;;;;;;;2.56;70.53;100558.25;10529251;28;20044;-66
2020/12/17 02:35:22;;;;;;;42.15;28.30;;;;;;;2.61;70.50;100549.69;10546784;28;20068;-65
2020/12/17 02:40:31;;;;;;;40.75;26.70;;;;;;;2.71;70.09;100546.31;10546924;28;20097;-65
2020/12/17 02:45:32;;;;;;;38.03;27.85;;;;;;;2.63;70.47;100547.09;10547073;28;20091;-67
2020/12/17 02:50:33;;;;;;;38.60;27.80;;;;;;;2.65;70.58;100543.63;10547127;28;20047;-66
2020/12/17 02:55:36;;;;;;;46.17;29.50;;;;;;;2.74;69.98;100540.25;10546312;28;20036;-66
2020/12/17 03:00:37;;;;;;;49.92;30.60;;;;;;;2.56;70.88;100546.16;10546969;28;20052;-67
2020/12/17 03:05:39;;;;;;;48.72;29.98;;;;;;;2.74;70.29;100537.66;10547991;28;20485;-67
2020/12/17 03:10:49;;;;;;;50.97;29.83;;;;;;;2.63;70.39;100534.13;10546294;28;20048;-66
2020/12/17 03:15:51;;;;;;;42.83;28.63;;;;;;;2.50;71.03;100525.34;10545263;28;20048;-67
2020/12/17 03:20:54;;;;;;;41.45;27.90;;;;;;;2.66;70.57;100532.41;10544079;28;20079;-66
2020/12/17 03:25:55;;;;;;;52.20;30.52;;;;;;;2.61;70.55;100520.25;10544606;28;20089;-66
2020/12/17 03:30:56;;;;;;;35.80;25.45;;;;;;;2.68;70.23;100535.03;10544797;28;20072;-64
2020/12/17 03:35:57;;;;;;;43.97;27.30;;;;;;;2.58;70.63;100530.63;10527853;28;20044;-66
2020/12/17 03:41:14;;;;;;;45.30;28.60;;;;;;;2.73;70.17;100529.00;10526274;28;20047;-67
2020/12/17 03:46:18;;;;;;;46.28;27.48;;;;;;;2.73;69.83;100521.22;10546180;28;20066;-66
2020/12/17 03:51:20;;;;;;;46.72;26.88;;;;;;;2.69;69.98;100527.22;10545254;28;20044;-65
2020/12/17 03:56:21;;;;;;;48.22;29.10;;;;;;;2.71;70.01;100522.94;10544924;28;20044;-65
2020/12/17 04:01:22;;;;;;;43.42;27.17;;;;;;;2.64;70.21;100533.25;10543278;28;20052;-67
2020/12/17 04:06:23;;;;;;;42.80;27.67;;;;;;;2.81;69.60;100536.00;10543253;28;20451;-67
2020/12/17 04:11:32;;;;;;;41.47;26.60;;;;;;;2.85;69.24;100528.25;10545024;28;20106;-67
2020/12/17 04:16:33;;;;;;;41.20;27.63;;;;;;;2.78;69.10;100527.31;10524917;28;20040;-67
2020/12/17 04:21:34;;;;;;;40.03;25.90;;;;;;;2.77;69.50;100530.75;10543019;28;20076;-64
2020/12/17 04:26:35;;;;;;;39.60;25.42;;;;;;;2.85;69.18;100527.38;10505753;28;20075;-65
2020/12/17 04:31:37;;;;;;;37.92;26.60;;;;;;;2.67;69.82;100520.31;10543009;28;20047;-66
2020/12/17 04:36:38;;;;;;;41.70;26.98;;;;;;;2.76;69.61;100513.47;10524193;28;20114;-66
2020/12/17 04:41:52;;;;;;;41.67;26.80;;;;;;;2.72;69.59;100519.47;10542145;28;20410;-66
2020/12/17 04:47:03;;;;;;;34.25;25.95;;;;;;;2.79;68.98;100523.00;10541252;28;20460;-66
2020/12/17 04:52:06;;;;;;;37.70;26.42;;;;;;;2.58;69.96;100515.03;10541159;28;20040;-66
2020/12/17 04:57:10;;;;;;;38.65;26.27;;;;;;;2.45;70.37;100504.56;10541136;28;20043;-67
2020/12/17 05:02:19;;;;;;;34.83;24.75;;;;;;;2.57;70.04;100508.09;10541870;28;20043;-66
2020/12/17 05:07:22;;;;;;;39.95;25.60;;;;;;;2.75;69.49;100503.06;10523533;28;20048;-66
2020/12/17 05:12:23;;;;;;;40.40;25.95;;;;;;;2.59;70.14;100498.59;10541550;28;20048;-66
2020/12/17 05:17:25;;;;;;;44.13;26.52;;;;;;;2.84;69.33;100503.13;10541285;28;20044;-66
2020/12/17 05:22:27;;;;;;;37.13;25.67;;;;;;;2.78;69.37;100500.47;10540772;28;20146;-66
2020/12/17 05:27:29;;;;;;;40.42;28.13;;;;;;;2.62;70.01;100501.25;10522806;28;20358;-66
2020/12/17 05:32:30;;;;;;;40.50;26.25;;;;;;;2.59;69.94;100499.47;10541570;28;20052;-66
2020/12/17 05:37:32;;;;;;;40.00;27.00;;;;;;;2.65;69.75;100503.84;10540754;28;20044;-67
2020/12/17 05:42:34;;;;;;;46.45;27.25;;;;;;;2.34;70.71;100507.91;10541463;28;20566;-66
2020/12/17 05:47:35;;;;;;;43.88;27.27;;;;;;;2.68;70.00;100512.53;10547407;28;20044;-67
2020/12/17 05:52:39;;;;;;;38.33;26.52;;;;;;;2.74;69.79;100509.97;10546640;28;20101;-66
2020/12/17 05:57:51;;;;;;;44.22;25.23;;;;;;;2.69;69.66;100516.84;10528901;28;20101;-65
2020/12/17 06:02:52;;;;;;;45.30;27.23;;;;;;;2.61;70.06;100517.66;10545594;28;20187;-67
2020/12/17 06:07:59;;;;;;;39.78;26.95;;;;;;;2.53;70.24;100523.66;10545376;28;20064;-65
2020/12/17 06:13:01;;;;;;;31.08;19.58;;;;;;;2.68;69.77;100537.63;10546312;28;20397;-65
2020/12/17 06:18:03;;;;;;;46.25;27.52;;;;;;;2.40;70.50;100544.28;10527639;28;20051;-65
2020/12/17 06:23:06;;;;;;;45.30;27.80;;;;;;;2.51;69.97;100546.13;10527434;28;20048;-66
2020/12/17 06:28:35;;;;;;;51.33;30.30;;;;;;;2.26;70.59;100552.81;10545197;28;20044;-66
2020/12/17 06:33:37;;;;;;;45.35;27.38;;;;;;;2.57;69.80;100552.22;10546184;28;20052;-66
2020/12/17 06:38:39;;;;;;;48.03;29.35;;;;;;;2.57;69.79;100553.09;10546380;28;20046;-66
2020/12/17 06:43:41;;;;;;;42.83;28.20;;;;;;;2.53;70.10;100557.41;10542946;28;20114;-67
2020/12/17 06:48:46;;;;;;;52.38;30.70;;;;;;;2.56;69.67;100560.84;10489384;28;20040;-66
2020/12/17 06:53:48;;;;;;;49.42;30.25;;;;;;;2.47;69.82;100572.88;10531009;22;20103;-67
2020/12/17 06:59:13;;;;;;;49.38;29.08;;;;;;;2.28;70.58;100568.38;10440307;28;20040;-67
2020/12/17 07:04:42;;;;;;;53.45;30.15;;;;;;;2.46;70.23;100562.50;10483260;28;20463;-68
2020/12/17 07:09:45;;;;;;;55.05;30.13;;;;;;;2.59;69.59;100555.72;10485584;28;20041;-68
2020/12/17 07:14:46;;;;;;;48.28;29.45;;;;;;;2.64;69.56;100569.59;10501936;28;20040;-67
2020/12/17 07:19:48;;;;;;;53.17;30.25;;;;;;;2.47;69.84;100572.03;10500626;28;20466;-67
2020/12/17 07:24:53;;;;;;;50.85;29.65;;;;;;;2.62;69.32;100579.97;10501531;28;20509;-68
2020/12/17 07:30:06;;;;;;;55.75;29.73;;;;;;;2.56;69.69;100577.28;10500651;28;20539;-68
2020/12/17 07:35:07;;;;;;;50.45;28.90;;;;;;;2.48;70.12;100589.34;10484991;28;20393;-68
2020/12/17 07:40:11;;;;;;;59.05;32.60;;;;;;;2.57;69.90;100579.06;10501920;28;20044;-68
2020/12/17 07:45:15;;;;;;;59.83;31.23;;;;;;;2.79;69.29;100585.31;10503640;28;20040;-68
2020/12/17 07:50:35;;;;;;;60.38;32.92;;;;;;;2.62;69.74;100589.47;10502833;28;20049;-68
2020/12/17 07:55:40;;;;;;;53.63;31.50;;;;;;;2.71;69.51;100587.84;10501762;28;20044;-68
2020/12/17 08:00:42;;;;;;;47.97;30.77;;;;;;;2.81;69.11;100585.31;10502701;28;20466;-67
2020/12/17 08:05:44;;;;;;;58.03;31.60;;;;;;;2.76;69.66;100590.47;10502337;28;20040;-67
2020/12/17 08:10:47;;;;;;;58.40;31.65;;;;;;;2.82;69.50;100598.31;10484888;28;20049;-67
2020/12/17 08:15:55;;;;;;;56.75;32.53;;;;;;;3.00;69.06;100601.03;10505470;28;20043;-68
2020/12/17 08:21:08;;;;;;;59.58;31.42;;;;;;;3.33;68.01;100598.72;10502789;28;20405;-67
2020/12/17 08:26:11;;;;;;;52.45;31.75;;;;;;;3.35;68.17;100597.84;10487268;28;20098;-68
2020/12/17 08:31:18;;;;;;;58.83;32.92;;;;;;;3.56;67.46;100598.84;10486686;28;20120;-68
2020/12/17 08:36:32;;;;;;;43.65;24.15;;;;;;;3.73;67.24;100597.22;10486770;28;20096;-67
2020/12/17 08:41:39;;;;;;;51.67;30.83;;;;;;;3.55;67.59;100592.78;10502618;28;20058;-68
2020/12/17 08:47:00;;;;;;;53.87;30.53;;;;;;;3.60;67.38;100595.41;10501172;28;20100;-69
2020/12/17 08:52:02;;;;;;;52.45;31.40;;;;;;;3.71;67.60;100606.72;10483270;28;20450;-67
2020/12/17 08:57:10;;;;;;;54.40;31.55;;;;;;;3.87;67.01;100608.53;10502753;28;20036;-67
2020/12/17 09:02:12;;;;;;;59.55;32.55;;;;;;;3.75;67.09;100614.53;10483165;28;20101;-68
2020/12/17 09:07:22;;;;;;;53.13;30.52;;;;;;;4.07;66.63;100607.75;10499918;28;20559;-68
2020/12/17 09:12:28;;;;;;;57.53;31.33;;;;;;;3.93;66.90;100613.75;10480509;28;20472;-68
2020/12/17 09:17:30;;;;;;;50.00;29.92;;;;;;;4.16;65.95;100605.16;10500653;28;20387;-68
2020/12/17 09:22:35;;;;;;;48.88;27.83;;;;;;;4.14;66.02;100602.56;10507964;28;20063;-68
2020/12/17 09:27:37;;;;;;;52.22;29.10;;;;;;;4.37;65.68;100610.44;10508150;28;20037;-68
2020/12/17 09:32:41;;;;;;;48.08;28.92;;;;;;;4.25;65.74;100597.41;10506816;28;20037;-68
2020/12/17 09:38:00;;;;;;;47.38;27.80;;;;;;;4.38;65.44;100590.50;10505428;28;20382;-68
2020/12/17 09:43:22;;;;;;;41.72;27.77;;;;;;;4.27;65.91;100593.06;10507478;28;20053;-67
2020/12/17 09:48:26;;;;;;;38.55;27.80;;;;;;;4.52;64.81;100597.47;10508347;28;20077;-67
2020/12/17 09:53:32;;;;;;;42.38;26.77;;;;;;;4.53;64.79;100599.22;10503980;28;20045;-67
2020/12/17 09:58:33;;;;;;;38.95;27.50;;;;;;;4.59;64.32;100592.28;10503383;28;20036;-67
2020/12/17 10:03:35;;;;;;;37.67;27.00;;;;;;;4.80;64.10;100597.50;10486204;28;20124;-68
2020/12/17 10:08:37;;;;;;;40.53;27.23;;;;;;;4.66;64.12;100594.91;10503285;28;20090;-68
2020/12/17 10:13:38;;;;;;;42.72;27.55;;;;;;;4.78;64.38;100591.41;10503087;28;20040;-66
2020/12/17 10:18:39;;;;;;;42.42;27.23;;;;;;;4.86;63.38;100591.44;10503424;28;20044;-69
2020/12/17 10:23:40;;;;;;;36.10;25.95;;;;;;;4.61;64.16;100582.75;10485862;28;20053;-68
2020/12/17 10:28:42;;;;;;;35.83;26.40;;;;;;;4.74;64.59;100582.75;10485170;28;20102;-68
2020/12/17 10:33:43;;;;;;;46.72;27.73;;;;;;;5.10;63.06;100573.19;10504067;28;20055;-67
2020/12/17 10:38:45;;;;;;;34.25;25.52;;;;;;;5.05;63.38;100581.03;10504043;28;20087;-68
2020/12/17 10:43:47;;;;;;;36.65;26.63;;;;;;;5.29;62.44;100577.50;10485787;28;20045;-68
2020/12/17 10:48:48;;;;;;;38.13;27.02;;;;;;;5.34;62.62;100576.63;10504804;28;20036;-67
2020/12/17 10:53:50;;;;;;;38.88;26.45;;;;;;;5.38;62.76;100584.44;10503175;28;20049;-67
2020/12/17 10:58:52;;;;;;;35.10;25.15;;;;;;;5.68;61.66;100586.13;10499995;28;20470;-68
2020/12/17 11:03:53;;;;;;;38.92;26.45;;;;;;;5.56;62.05;100588.75;10502201;28;20090;-68
2020/12/17 11:08:54;;;;;;;40.65;26.02;;;;;;;5.62;62.34;100588.72;10483656;28;20490;-68
2020/12/17 11:13:56;;;;;;;36.17;25.50;;;;;;;6.20;60.75;100574.66;10502619;28;20044;-68
2020/12/17 11:18:59;;;;;;;36.03;27.00;;;;;;;6.24;60.67;100566.78;10501366;28;20041;-68
2020/12/17 11:24:01;;;;;;;35.75;25.70;;;;;;;6.57;59.63;100563.06;10500545;28;20076;-68
2020/12/17 11:29:03;;;;;;;39.65;25.92;;;;;;;6.23;60.64;100556.31;10482543;28;20101;-67
2020/12/17 11:34:05;;;;;;;37.60;26.38;;;;;;;6.07;61.02;100552.94;10501230;28;20059;-68
2020/12/17 11:39:06;;;;;;;35.03;26.55;;;;;;;6.67;59.38;100537.75;10499778;28;20048;-68
2020/12/17 11:44:08;;;;;;;43.38;27.40;;;;;;;6.21;60.61;100542.44;10499100;28;20043;-68
2020/12/17 11:49:09;;;;;;;38.90;26.73;;;;;;;5.96;61.11;100559.94;10499284;28;20040;-67
2020/12/17 11:54:11;;;;;;;38.40;26.77;;;;;;;6.23;60.55;100566.78;10466036;28;20449;-68
2020/12/17 11:59:12;;;;;;;41.13;25.80;;;;;;;6.03;61.21;100572.97;10499190;28;20101;-68
2020/12/17 12:04:13;;;;;;;41.05;27.00;;;;;;;6.11;60.51;100574.66;10500212;28;20175;-68
2020/12/17 12:09:18;;;;;;;42.35;26.70;;;;;;;6.03;60.68;100593.00;10499160;28;20044;-67
2020/12/17 12:14:20;;;;;;;39.60;25.75;;;;;;;6.21;60.19;100595.50;10485350;28;20056;-66
2020/12/17 12:19:22;;;;;;;36.08;26.25;;;;;;;6.17;60.83;100601.63;10501848;28;20498;-68
2020/12/17 12:24:23;;;;;;;34.47;25.70;;;;;;;6.70;59.12;100597.81;10502652;28;20056;-68
2020/12/17 12:29:26;;;;;;;42.22;28.42;;;;;;;6.49;59.59;100595.34;10483215;28;20053;-68
2020/12/17 12:34:29;;;;;;;33.75;25.27;;;;;;;6.53;59.41;100595.31;10487149;28;20080;-67
2020/12/17 12:39:31;;;;;;;42.95;27.55;;;;;;;6.31;59.45;100602.41;10503255;28;20036;-67
2020/12/17 12:44:32;;;;;;;44.95;27.17;;;;;;;6.31;59.60;100591.97;10501159;28;20464;-67
2020/12/17 12:49:34;;;;;;;42.65;27.27;;;;;;;6.13;60.08;100581.63;10486309;28;20405;-71
2020/12/17 12:54:35;;;;;;;36.83;26.33;;;;;;;6.12;60.13;100579.91;10520485;22;20053;-69
2020/12/17 12:59:37;;;;;;;39.15;26.10;;;;;;;5.86;60.73;100581.72;10506451;28;20036;-70
2020/12/17 13:04:39;;;;;;;36.30;25.90;;;;;;;5.96;60.60;100579.09;10505087;28;20102;-70
2020/12/17 13:09:40;;;;;;;36.83;25.92;;;;;;;5.69;61.43;100582.63;10505060;28;20048;-70
2020/12/17 13:14:42;;;;;;;34.75;26.73;;;;;;;5.42;62.40;100588.78;10506377;28;20037;-70
2020/12/17 13:19:43;;;;;;;39.47;26.90;;;;;;;5.74;61.80;100593.03;10487148;28;20072;-70
2020/12/17 13:24:44;;;;;;;39.17;25.13;;;;;;;5.71;61.97;100587.84;10505037;28;20082;-70
2020/12/17 13:29:46;;;;;;;39.42;26.17;;;;;;;5.41;62.65;100588.81;10504312;28;20051;-69
2020/12/17 13:34:47;;;;;;;37.60;24.52;;;;;;;5.40;62.79;100585.34;10504786;28;20070;-69
2020/12/17 13:39:48;;;;;;;41.72;25.70;;;;;;;5.51;62.63;100583.56;10504772;28;20041;-69
2020/12/17 13:44:50;;;;;;;43.47;26.92;;;;;;;5.17;63.41;100589.69;10504062;28;20128;-70
2020/12/17 13:49:51;;;;;;;41.33;26.65;;;;;;;5.20;63.46;100585.34;10503932;28;20072;-70
2020/12/17 13:54:52;;;;;;;37.30;27.15;;;;;;;5.32;62.70;100579.25;10503550;28;20041;-69
2020/12/17 13:59:53;;;;;;;41.38;25.38;;;;;;;5.10;64.07;100581.03;10503489;28;20136;-69
2020/12/17 14:04:54;;;;;;;42.67;26.42;;;;;;;5.04;63.96;100587.06;10501187;28;20037;-69
2020/12/17 14:09:56;;;;;;;39.78;26.30;;;;;;;5.19;63.81;100580.16;10501405;28;20105;-69
2020/12/17 14:14:57;;;;;;;44.00;26.30;;;;;;;5.22;63.44;100575.81;10502169;28;20058;-70
2020/12/17 14:19:59;;;;;;;35.25;25.30;;;;;;;5.06;64.25;100587.09;10502715;28;20502;-70
2020/12/17 14:25:00;;;;;;;40.28;26.92;;;;;;;5.21;63.78;100601.84;10502607;28;20102;-69
2020/12/17 14:30:01;;;;;;;36.60;26.05;;;;;;;4.89;64.61;100615.75;10502375;28;20448;-70
2020/12/17 14:35:04;;;;;;;37.55;25.67;;;;;;;4.95;64.67;100630.50;10501466;28;20052;-70
2020/12/17 14:40:05;;;;;;;35.88;25.75;;;;;;;4.86;64.55;100628.75;10502167;28;20169;-70
2020/12/17 14:45:07;;;;;;;32.50;25.63;;;;;;;4.74;65.14;100647.00;10502235;28;20037;-70
2020/12/17 14:50:08;;;;;;;37.50;25.67;;;;;;;4.76;65.09;100650.47;10501192;28;20408;-71
2020/12/17 14:55:10;;;;;;;49.47;28.10;;;;;;;4.39;66.11;100654.72;10500560;28;20075;-70
2020/12/17 15:00:11;;;;;;;45.10;27.55;;;;;;;4.61;65.67;100659.13;10502731;28;20165;-69
2020/12/17 15:05:12;;;;;;;44.85;28.85;;;;;;;4.55;65.71;100669.50;10503362;28;20123;-70
2020/12/17 15:10:13;;;;;;;49.92;28.42;;;;;;;4.22;66.68;100684.16;10502590;28;20043;-70
2020/12/17 15:15:15;;;;;;;39.17;28.67;;;;;;;4.44;66.43;100694.66;10502725;28;20075;-69
2020/12/17 15:20:16;;;;;;;40.83;28.23;;;;;;;4.65;65.57;100683.41;10501586;28;20102;-69
2020/12/17 15:25:17;;;;;;;42.15;30.00;;;;;;;4.63;65.70;100696.44;10501432;28;20125;-66
2020/12/17 15:30:19;;;;;;;43.47;27.98;;;;;;;4.43;66.15;100704.19;10483686;28;20064;-69
2020/12/17 15:35:28;;;;;;;51.05;31.35;;;;;;;3.84;67.94;100709.94;10499925;28;20043;-69
2020/12/17 15:40:29;;;;;;;48.72;30.30;;;;;;;4.01;67.65;100717.84;10502107;28;20050;-69
2020/12/17 15:45:41;;;;;;;46.58;29.95;;;;;;;4.37;66.57;100717.16;10474834;28;20406;-69
2020/12/17 15:50:45;;;;;;;47.25;29.98;;;;;;;4.25;66.96;100710.19;10480444;28;20231;-68
2020/12/17 15:55:49;;;;;;;46.58;29.20;;;;;;;4.27;66.98;100733.59;10498254;28;20044;-69
2020/12/17 16:00:51;;;;;;;46.47;30.98;;;;;;;4.18;67.40;100731.81;10498183;28;20048;-71
2020/12/17 16:05:53;;;;;;;46.38;29.98;;;;;;;4.01;68.00;100736.06;10498083;28;20040;-69
2020/12/17 16:10:54;;;;;;;49.30;30.35;;;;;;;4.10;67.66;100738.72;10498350;28;20454;-71
2020/12/17 16:15:55;;;;;;;42.90;29.60;;;;;;;4.37;66.64;100743.19;10497440;28;20048;-69
2020/12/17 16:20:57;;;;;;;44.05;28.17;;;;;;;4.34;67.05;100747.50;10497919;28;20055;-70
2020/12/17 16:25:58;;;;;;;43.97;30.33;;;;;;;4.41;66.81;100755.38;10480515;28;20058;-69
2020/12/17 16:31:04;;;;;;;44.08;29.77;;;;;;;4.15;67.89;100762.16;10480045;28;20053;-69
2020/12/17 16:36:06;;;;;;;41.75;28.25;;;;;;;4.52;66.63;100769.31;10498017;28;20040;-69
2020/12/17 16:41:07;;;;;;;45.10;28.58;;;;;;;4.30;67.96;100770.06;10496689;28;20079;-69
2020/12/17 16:46:12;;;;;;;48.67;32.03;;;;;;;4.34;68.31;100769.22;10497146;28;20036;-69
2020/12/17 16:51:15;;;;;;;43.95;29.67;;;;;;;4.18;69.25;100770.88;10496678;28;20053;-69
2020/12/17 16:56:19;;;;;;;48.30;31.02;;;;;;;4.00;69.69;100782.03;10478827;28;20043;-69
2020/12/17 17:01:21;;;;;;;47.55;31.98;;;;;;;4.13;69.39;100780.38;10498384;28;20116;-69
2020/12/17 17:06:25;;;;;;;53.97;31.60;;;;;;;4.21;69.52;100790.84;10496691;28;20039;-69
2020/12/17 17:11:27;;;;;;;49.90;30.92;;;;;;;4.22;69.30;100784.75;10480231;28;20481;-68
2020/12/17 17:16:28;;;;;;;41.92;30.25;;;;;;;4.48;68.54;100777.97;10497302;28;20053;-69
2020/12/17 17:21:29;;;;;;;42.95;29.38;;;;;;;4.25;69.34;100785.66;10498004;28;20537;-69
2020/12/17 17:26:30;;;;;;;49.15;31.60;;;;;;;4.08;69.76;100776.00;10497196;28;20040;-69
2020/12/17 17:31:31;;;;;;;52.10;31.67;;;;;;;4.41;68.99;100797.00;10488014;28;20067;-69
2020/12/17 17:36:33;;;;;;;41.10;28.63;;;;;;;4.33;69.10;100801.31;10496408;28;20127;-69
2020/12/17 17:41:34;;;;;;;45.92;30.17;;;;;;;4.33;69.47;100814.31;10502613;28;20041;-69
2020/12/17 17:46:35;;;;;;;43.08;29.67;;;;;;;4.42;69.47;100816.97;10504455;28;20047;-69
2020/12/17 17:51:36;;;;;;;45.90;30.02;;;;;;;4.64;68.72;100825.78;10502667;28;20102;-70
2020/12/17 17:56:37;;;;;;;43.53;29.17;;;;;;;4.63;68.82;100816.22;10503533;28;20056;-69
2020/12/17 18:01:42;;;;;;;39.47;28.50;;;;;;;4.63;68.77;100810.16;10503987;28;20056;-69
2020/12/17 18:06:43;;;;;;;42.60;29.33;;;;;;;4.46;69.19;100816.13;10503815;28;20560;-69
2020/12/17 18:11:44;;;;;;;46.35;30.08;;;;;;;4.70;68.52;100810.19;10503713;28;20113;-69
2020/12/17 18:16:45;;;;;;;41.63;29.52;;;;;;;4.66;68.70;100810.16;10504568;28;20470;-69
2020/12/17 18:21:47;;;;;;;46.85;30.45;;;;;;;4.28;69.79;100813.41;10505767;28;20048;-69
2020/12/17 18:26:48;;;;;;;41.42;28.52;;;;;;;4.46;69.83;100826.53;10503471;28;20044;-70
2020/12/17 18:31:49;;;;;;;42.78;29.13;;;;;;;4.72;68.98;100818.88;10503045;28;20079;-70
2020/12/17 18:36:51;;;;;;;49.55;30.30;;;;;;;4.36;70.01;100842.97;10502836;28;20033;-70
2020/12/17 18:41:53;;;;;;;44.45;28.73;;;;;;;4.20;70.45;100842.00;10503254;28;20432;-70
2020/12/17 18:47:00;;;;;;;41.15;27.02;;;;;;;4.61;69.51;100848.34;10502360;28;20090;-69
2020/12/17 18:52:02;;;;;;;46.92;29.85;;;;;;;4.43;70.00;100854.31;10502874;28;20040;-69
2020/12/17 18:57:04;;;;;;;37.95;26.65;;;;;;;4.24;70.48;100855.91;10546822;22;20040;-69
2020/12/17 19:02:06;;;;;;;41.08;28.10;;;;;;;4.19;70.47;100849.78;10562296;28;20035;-68
2020/12/17 19:07:08;;;;;;;36.95;26.10;;;;;;;4.40;69.70;100857.75;10559726;28;20515;-69
2020/12/17 19:12:10;;;;;;;39.33;25.75;;;;;;;4.26;70.51;100859.41;10544419;28;20122;-69
2020/12/17 19:17:12;;;;;;;37.22;26.13;;;;;;;4.29;70.57;100862.00;10554170;28;20081;-69
2020/12/17 19:22:18;;;;;;;38.40;26.92;;;;;;;4.14;71.20;100870.56;10534383;28;20123;-69
2020/12/17 19:27:20;;;;;;;35.50;26.48;;;;;;;4.46;70.83;100863.00;10535306;28;20091;-69
2020/12/17 19:32:25;;;;;;;39.63;26.77;;;;;;;4.36;70.62;100866.41;10541950;28;20517;-69
2020/12/17 19:37:29;;;;;;;35.72;26.08;;;;;;;4.35;70.94;100875.06;10538967;28;20398;-69
2020/12/17 19:42:30;;;;;;;41.97;27.75;;;;;;;4.10;71.41;100863.59;10555991;28;20048;-69
2020/12/17 19:47:32;;;;;;;37.65;25.75;;;;;;;4.43;70.98;100875.13;10537802;28;20091;-69
2020/12/17 19:52:34;;;;;;;41.20;24.85;;;;;;;4.17;71.14;100886.22;10551232;28;20036;-69
2020/12/17 19:57:37;;;;;;;39.20;26.65;;;;;;;4.32;70.89;100884.59;10552460;28;20093;-70
2020/12/17 20:02:40;;;;;;;41.95;28.17;;;;;;;4.28;70.94;100894.09;10551405;28;20072;-68
2020/12/17 20:07:41;;;;;;;38.80;27.50;;;;;;;3.92;71.46;100899.88;10535238;28;20056;-69
2020/12/17 20:12:43;;;;;;;41.25;27.95;;;;;;;3.96;71.10;100894.72;10528505;28;20059;-68
2020/12/17 20:17:45;;;;;;;52.58;29.67;;;;;;;3.90;72.06;100894.66;10544185;28;20044;-69
2020/12/17 20:22:46;;;;;;;44.28;27.88;;;;;;;3.59;72.38;100908.22;10545272;28;20066;-70
2020/12/17 20:27:47;;;;;;;44.22;27.88;;;;;;;3.45;72.29;100903.75;10529016;28;20051;-69
2020/12/17 20:32:52;;;;;;;48.42;28.38;;;;;;;3.51;72.67;100906.41;10547894;28;20044;-70
2020/12/17 20:37:56;;;;;;;46.33;28.08;;;;;;;3.65;72.97;100901.34;10534647;28;20027;-71
2020/12/17 20:42:58;;;;;;;16.00;14.70;;;;;;;4.32;75.10;100895.00;10569624;28;20086;-68
2020/12/17 20:48:00;;;;;;;13.30;12.18;;;;;;;5.17;72.68;100890.28;10550983;28;20058;-69
2020/12/17 20:53:02;;;;;;;10.98;9.98;;;;;;;5.82;70.59;100894.78;10543646;28;20036;-68
2020/12/17 20:58:03;;;;;;;11.40;10.23;;;;;;;6.24;69.23;100898.34;10526922;28;20040;-70
2020/12/17 21:03:04;;;;;;;11.63;10.63;;;;;;;6.35;68.83;100897.47;10544667;28;20064;-69
2020/12/17 21:08:06;;;;;;;10.30;9.40;;;;;;;6.48;68.00;100894.84;10525228;28;20068;-69
2020/12/17 21:13:07;;;;;;;10.60;9.73;;;;;;;6.48;67.85;100891.34;10527790;28;20106;-69
2020/12/17 21:18:08;;;;;;;11.23;10.43;;;;;;;6.44;67.85;100897.44;10551106;28;20036;-69
2020/12/17 21:23:09;;;;;;;12.02;11.02;;;;;;;6.01;69.06;100903.53;10533612;28;20044;-68
2020/12/17 21:28:12;;;;;;;12.27;11.35;;;;;;;6.15;68.33;100903.53;10533472;28;20040;-70
2020/12/17 21:33:13;;;;;;;12.43;11.43;;;;;;;6.31;67.82;100901.81;10552026;28;20044;-69
2020/12/17 21:38:14;;;;;;;11.77;10.88;;;;;;;6.01;68.52;100898.31;10552063;28;20044;-70
2020/12/17 21:43:16;;;;;;;12.27;11.27;;;;;;;5.89;68.66;100906.13;10550464;28;20097;-69
2020/12/17 21:48:17;;;;;;;9.48;8.77;;;;;;;6.01;68.41;100906.16;10534224;28;20040;-68
2020/12/17 21:53:19;;;;;;;10.13;9.30;;;;;;;6.05;68.53;100907.03;10533557;28;20122;-69
2020/12/17 21:58:21;;;;;;;10.80;9.90;;;;;;;5.70;69.01;100922.59;10550629;28;20516;-68
2020/12/17 22:03:26;;;;;;;18.52;16.90;;;;;;;5.40;68.42;100926.88;10517704;28;20405;-69
2020/12/17 22:08:44;;;;;;;26.27;22.33;;;;;;;4.87;68.95;100932.72;10550218;28;20044;-68
2020/12/17 22:13:45;;;;;;;29.33;23.50;;;;;;;4.65;69.35;100936.91;10531713;28;20068;-68
2020/12/17 22:18:46;;;;;;;35.45;24.40;;;;;;;4.29;70.22;100940.09;10549455;28;20090;-69
2020/12/17 22:23:48;;;;;;;32.38;24.70;;;;;;;3.94;71.01;100945.88;10549252;28;20398;-69
2020/12/17 22:28:53;;;;;;;39.85;25.30;;;;;;;3.69;71.53;100949.06;10549686;28;20040;-68
2020/12/17 22:33:56;;;;;;;40.00;25.92;;;;;;;3.53;71.69;100946.28;10548096;28;20055;-67
2020/12/17 22:38:58;;;;;;;43.97;26.98;;;;;;;3.56;72.23;100944.59;10530157;28;20475;-69
2020/12/17 22:44:02;;;;;;;40.63;25.20;;;;;;;3.64;72.05;100945.53;10531364;28;20108;-69
2020/12/17 22:49:05;;;;;;;33.25;24.70;;;;;;;3.58;72.24;100940.25;10549327;28;20069;-68
2020/12/17 22:54:11;;;;;;;51.30;28.60;;;;;;;3.30;72.91;100942.53;10528795;28;20055;-69
2020/12/17 22:59:14;;;;;;;50.50;27.83;;;;;;;3.53;73.04;100941.06;10547238;28;20058;-69